Time;durP1;ratioP1;P1;durP2;ratioP2;P2;SDS_P1;SDS_P2;PMS_P1;PMS_P2;Temp;Humidity;BMP_temperature;BMP_pressure;BME280_temperature;BME280_humidity;BME280_pressure;Samples;Min_cycle;Max_cycle;Signal;HPM_P1;HPM_P2
2021/12/05 00:22:55;;;;;;;1.30;1.20;;;3.00;99.90;;;;;;6185916;23;20017;-82
2021/12/05 00:25:32;;;;;;;1.95;1.42;;;3.00;99.90;;;;;;6188352;23;20445;-83
2021/12/05 00:40:10;;;;;;;1.08;1.08;;;2.40;99.90;;;;;;6183386;23;20028;-82
2021/12/05 01:09:45;;;;;;;2.03;1.40;;;2.70;99.90;;;;;;6190938;23;20017;-83
2021/12/05 01:15:01;;;;;;;1.95;1.58;;;2.60;99.90;;;;;;6159510;23;20024;-83
2021/12/05 01:17:59;;;;;;;2.90;1.38;;;2.70;99.90;;;;;;6163900;23;20020;-82
2021/12/05 01:20:35;;;;;;;2.60;1.40;;;2.50;99.90;;;;;;6135709;23;20353;-83
2021/12/05 01:23:10;;;;;;;4.60;1.50;;;2.50;99.90;;;;;;6158239;23;20021;-83
2021/12/05 01:25:45;;;;;;;1.48;1.33;;;2.50;99.90;;;;;;6150544;23;20024;-83
2021/12/05 01:29:03;;;;;;;1.13;1.13;;;2.60;99.90;;;;;;6153256;23;20052;-82
2021/12/05 01:31:23;;;;;;;1.20;1.20;;;2.50;99.90;;;;;;6140873;23;20017;-82
2021/12/05 01:34:11;;;;;;;1.45;1.33;;;2.40;99.90;;;;;;6130409;23;20447;-82
2021/12/05 01:53:02;;;;;;;3.10;1.50;;;2.30;99.90;;;;;;6165054;23;20024;-83
2021/12/05 02:09:36;;;;;;;;;;;2.10;99.90;;;;;;6165793;23;20020;-82
2021/12/05 02:15:26;;;;;;;2.72;1.13;;;2.10;99.90;;;;;;6154121;23;20021;-83
2021/12/05 02:38:04;;;;;;;1.50;1.13;;;1.90;99.90;;;;;;6191599;23;20024;-82
2021/12/05 02:40:53;;;;;;;1.63;1.10;;;1.90;99.90;;;;;;6159438;23;20451;-83
2021/12/05 02:43:28;;;;;;;1.10;1.10;;;1.90;99.90;;;;;;6130083;23;20344;-82
2021/12/05 02:46:00;;;;;;;1.17;1.13;;;2.00;99.90;;;;;;6163064;23;20363;-82
2021/12/05 02:48:31;;;;;;;1.00;1.00;;;2.00;99.90;;;;;;6165302;23;20009;-84
2021/12/05 02:51:09;;;;;;;6.75;1.65;;;2.00;99.90;;;;;;6157845;23;20253;-84
2021/12/05 02:53:50;;;;;;;1.27;1.27;;;2.00;99.90;;;;;;6164909;23;20023;-82
2021/12/05 02:56:20;;;;;;;0.82;0.82;;;1.90;99.90;;;;;;6151087;23;20032;-81
2021/12/05 02:58:51;;;;;;;2.95;1.58;;;1.90;99.90;;;;;;6160228;23;20028;-83
2021/12/05 03:01:30;;;;;;;1.25;1.17;;;1.90;99.90;;;;;;6105610;23;20036;-83
2021/12/05 03:03:59;;;;;;;1.02;0.90;;;1.90;99.90;;;;;;6155084;23;20028;-83
2021/12/05 03:06:31;;;;;;;1.30;1.20;;;1.90;99.90;;;;;;6155876;23;20029;-81
2021/12/05 03:09:07;;;;;;;1.17;1.00;;;2.00;99.90;;;;;;6130969;23;20021;-83
2021/12/05 03:11:35;;;;;;;1.95;1.38;;;1.90;99.90;;;;;;6151124;23;20046;-82
2021/12/05 03:14:06;;;;;;;1.33;1.30;;;2.00;99.90;;;;;;6138705;23;20206;-83
2021/12/05 03:16:36;;;;;;;1.00;1.00;;;1.90;99.90;;;;;;6155225;23;20348;-83
2021/12/05 03:19:06;;;;;;;1.55;0.88;;;1.90;99.90;;;;;;6154377;23;20017;-82
2021/12/05 03:21:36;;;;;;;1.40;1.20;;;1.80;99.90;;;;;;6163917;23;20016;-82
2021/12/05 03:24:06;;;;;;;1.23;1.00;;;1.70;99.90;;;;;;6130870;23;20033;-82
2021/12/05 03:26:39;;;;;;;1.60;1.50;;;1.50;99.90;;;;;;6133771;23;20017;-83
2021/12/05 03:29:10;;;;;;;1.30;1.20;;;1.50;99.90;;;;;;6140631;23;20013;-82
2021/12/05 03:31:38;;;;;;;;;;;1.20;99.90;;;;;;6182704;23;20029;-82
2021/12/05 03:34:10;;;;;;;1.27;1.27;;;1.20;99.90;;;;;;6162918;23;20248;-82
2021/12/05 03:36:39;;;;;;;;;;;1.10;99.90;;;;;;6130297;23;20013;-83
2021/12/05 03:39:09;;;;;;;1.58;1.48;;;1.10;99.90;;;;;;6158532;23;19927;-82
2021/12/05 03:41:38;;;;;;;1.63;1.20;;;1.10;99.90;;;;;;6161707;23;20013;-82
2021/12/05 03:44:10;;;;;;;1.13;1.10;;;1.00;99.90;;;;;;6154930;23;20326;-83
2021/12/05 03:46:39;;;;;;;1.67;0.90;;;1.00;99.90;;;;;;6160725;23;20326;-83
2021/12/05 03:49:12;;;;;;;2.53;1.33;;;1.10;99.90;;;;;;6164933;23;20024;-83
2021/12/05 03:51:48;;;;;;;3.30;1.10;;;1.00;99.90;;;;;;6154875;23;20228;-83
2021/12/05 03:54:17;;;;;;;1.92;1.25;;;1.00;99.90;;;;;;6161585;23;20464;-83
2021/12/05 03:56:48;;;;;;;;;;;1.00;99.90;;;;;;6152622;23;20017;-83
2021/12/05 03:59:18;;;;;;;1.38;1.30;;;0.90;99.90;;;;;;6157910;23;19923;-82
2021/12/05 04:01:47;;;;;;;1.55;1.42;;;0.90;99.90;;;;;;6162547;23;20318;-82
2021/12/05 04:04:17;;;;;;;2.25;1.50;;;0.80;99.90;;;;;;6154495;23;20013;-82
2021/12/05 04:06:48;;;;;;;1.40;1.30;;;0.90;99.90;;;;;;6153876;23;20025;-82
2021/12/05 04:09:17;;;;;;;1.90;1.00;;;0.80;99.90;;;;;;6164674;23;20017;-83
2021/12/05 04:11:57;;;;;;;1.15;1.05;;;0.90;99.90;;;;;;6152599;23;20044;-82
2021/12/05 04:14:30;;;;;;;1.10;1.10;;;0.90;99.90;;;;;;6136550;23;20032;-83
2021/12/05 04:17:02;;;;;;;2.75;1.55;;;0.80;99.90;;;;;;6106851;23;20024;-82
2021/12/05 04:19:31;;;;;;;2.33;2.22;;;0.90;99.90;;;;;;6129368;23;20025;-83
2021/12/05 04:22:01;;;;;;;3.78;3.38;;;0.90;99.90;;;;;;6137350;23;20516;-83
2021/12/05 04:24:54;;;;;;;1.55;1.42;;;0.90;99.90;;;;;;6164081;23;20467;-83
2021/12/05 04:28:18;;;;;;;1.15;1.15;;;1.00;99.90;;;;;;6129096;23;20028;-83
2021/12/05 04:31:29;;;;;;;1.42;1.33;;;1.00;99.90;;;;;;6139664;23;20031;-83
2021/12/05 04:34:13;;;;;;;1.70;1.60;;;1.00;99.90;;;;;;6162700;23;20028;-82
2021/12/05 04:36:43;;;;;;;1.50;1.40;;;0.90;99.90;;;;;;6163850;23;20017;-83
2021/12/05 04:39:13;;;;;;;1.48;1.38;;;1.00;99.90;;;;;;6104958;23;20029;-82
2021/12/05 04:41:44;;;;;;;1.98;1.35;;;1.00;99.90;;;;;;6161976;23;20027;-83
2021/12/05 04:44:13;;;;;;;0.98;0.98;;;1.00;99.90;;;;;;6153675;23;20033;-83
2021/12/05 04:46:43;;;;;;;1.10;1.10;;;1.00;99.90;;;;;;6153724;23;20025;-82
2021/12/05 04:49:11;;;;;;;6.50;2.97;;;1.20;99.90;;;;;;6129857;23;20021;-83
2021/12/05 04:51:43;;;;;;;2.58;0.90;;;1.10;99.90;;;;;;6155359;23;20025;-83
2021/12/05 04:54:17;;;;;;;2.95;1.58;;;1.10;99.90;;;;;;6161904;23;20020;-83
2021/12/05 04:56:48;;;;;;;2.28;1.45;;;1.10;99.90;;;;;;6188320;23;20013;-83
2021/12/05 04:59:23;;;;;;;2.25;1.38;;;1.10;99.90;;;;;;6157215;23;20017;-83
2021/12/05 05:01:54;;;;;;;3.90;1.13;;;1.00;99.90;;;;;;6162328;23;20013;-83
2021/12/05 05:06:52;;;;;;;5.40;1.80;;;1.00;99.90;;;;;;6154276;23;20033;-83
2021/12/05 05:09:20;;;;;;;0.95;0.95;;;1.00;99.90;;;;;;6182336;23;20017;-83
2021/12/05 05:11:48;;;;;;;1.30;1.20;;;1.00;99.90;;;;;;6153683;23;20025;-83
2021/12/05 05:14:16;;;;;;;1.67;1.10;;;1.10;99.90;;;;;;6190019;23;20028;-82
2021/12/05 05:16:47;;;;;;;11.68;2.75;;;0.90;99.90;;;;;;6192196;23;20429;-82
2021/12/05 05:19:17;;;;;;;1.15;1.10;;;0.90;99.90;;;;;;6185790;23;20028;-82
2021/12/05 05:46:37;;;;;;;1.10;1.00;;;0.80;99.90;;;;;;6189415;23;20377;-83
2021/12/05 05:49:22;;;;;;;1.55;1.45;;;0.80;99.90;;;;;;6192313;23;20028;-83
2021/12/05 05:51:50;;;;;;;1.60;1.33;;;0.80;99.90;;;;;;6182109;23;20032;-83
2021/12/05 05:54:19;;;;;;;1.00;1.00;;;0.80;99.90;;;;;;6162297;23;20025;-83
2021/12/05 05:56:52;;;;;;;1.17;1.10;;;0.70;99.90;;;;;;6189989;23;20020;-84
2021/12/05 05:59:25;;;;;;;1.52;1.10;;;0.70;99.90;;;;;;6185165;23;20024;-83
2021/12/05 06:03:20;;;;;;;1.88;1.77;;;0.70;99.90;;;;;;6130064;23;20449;-83
2021/12/05 06:04:45;;;;;;;9.32;3.05;;;0.70;99.90;;;;;;6185099;23;20017;-83
2021/12/05 06:07:14;;;;;;;3.13;1.13;;;0.80;99.90;;;;;;6185190;23;20044;-84
2021/12/05 06:09:42;;;;;;;1.73;1.30;;;0.70;99.90;;;;;;6181034;23;20345;-82
2021/12/05 06:12:10;;;;;;;2.10;1.90;;;0.70;99.90;;;;;;6179047;23;20479;-84
2021/12/05 06:14:38;;;;;;;2.38;2.28;;;0.70;99.90;;;;;;6161291;23;20024;-83
2021/12/05 06:17:06;;;;;;;1.02;1.02;;;0.70;99.90;;;;;;6155090;23;20020;-84
2021/12/05 06:19:33;;;;;;;1.55;1.45;;;0.60;99.90;;;;;;6184103;23;20016;-84
2021/12/05 06:22:05;;;;;;;1.05;1.05;;;0.60;99.90;;;;;;6129072;23;20022;-82
2021/12/05 06:24:33;;;;;;;2.75;1.52;;;0.60;99.90;;;;;;6191572;23;20334;-84
2021/12/05 06:27:02;;;;;;;1.45;1.38;;;0.50;99.90;;;;;;6182614;23;20021;-84
2021/12/05 06:29:36;;;;;;;1.33;1.23;;;0.50;99.90;;;;;;6165745;23;20013;-84
2021/12/05 06:46:06;;;;;;;1.55;1.45;;;0.60;99.90;;;;;;6126687;23;20021;-84
2021/12/05 06:48:34;;;;;;;1.85;1.75;;;0.70;99.90;;;;;;6164929;23;20009;-83
2021/12/05 06:51:03;;;;;;;1.20;1.20;;;0.60;99.90;;;;;;6158702;23;20024;-83
2021/12/05 06:53:31;;;;;;;2.72;1.70;;;0.70;99.90;;;;;;6141015;23;20020;-83
2021/12/05 06:55:58;;;;;;;1.80;1.40;;;0.70;99.90;;;;;;6179949;23;20024;-83
2021/12/05 06:58:27;;;;;;;3.75;1.90;;;0.70;99.90;;;;;;6162017;23;20458;-84
2021/12/05 07:00:55;;;;;;;1.58;1.48;;;0.70;99.90;;;;;;6190581;23;20017;-82
2021/12/05 07:03:23;;;;;;;2.47;1.25;;;0.70;99.90;;;;;;6130122;23;20036;-84
2021/12/05 07:08:36;;;;;;;2.70;2.35;;;0.70;99.90;;;;;;6155630;23;20013;-84
2021/12/05 07:11:17;;;;;;;1.98;1.85;;;0.70;99.90;;;;;;6151344;23;20017;-84
2021/12/05 07:16:55;;;;;;;2.10;2.00;;;0.70;99.90;;;;;;6165160;23;20468;-84
2021/12/05 07:19:33;;;;;;;3.60;2.33;;;0.80;99.90;;;;;;6184399;23;20032;-84
2021/12/05 07:22:15;;;;;;;1.65;1.55;;;0.70;99.90;;;;;;6137496;23;20332;-83
2021/12/05 07:25:04;;;;;;;1.90;1.80;;;0.70;99.90;;;;;;6129491;23;20029;-83
2021/12/05 07:43:52;;;;;;;8.55;1.98;;;1.00;99.90;;;;;;6182265;23;20044;-84
2021/12/05 07:46:20;;;;;;;4.40;1.70;;;0.90;99.90;;;;;;6188021;23;20463;-83
2021/12/05 07:48:48;;;;;;;7.28;1.80;;;1.00;99.90;;;;;;6154565;23;20021;-83
2021/12/05 07:54:10;;;;;;;1.85;1.67;;;1.10;99.90;;;;;;6154431;23;20017;-83
2021/12/05 07:56:48;;;;;;;2.03;1.88;;;1.10;99.90;;;;;;6117846;23;20040;-84
2021/12/05 08:15:46;;;;;;;3.35;2.92;;;1.30;99.90;;;;;;6152252;23;20338;-84
2021/12/05 08:18:15;;;;;;;1.35;1.35;;;1.20;99.90;;;;;;6151314;23;20322;-83
2021/12/05 08:20:44;;;;;;;2.22;1.55;;;1.20;99.90;;;;;;6159394;23;20014;-83
2021/12/05 08:23:13;;;;;;;1.60;1.35;;;1.30;99.90;;;;;;6154310;23;20025;-83
2021/12/05 08:25:49;;;;;;;2.53;2.35;;;1.30;99.90;;;;;;6158712;23;20032;-83
2021/12/05 08:28:29;;;;;;;2.15;1.73;;;1.40;99.90;;;;;;6123180;23;20017;-86
2021/12/05 08:31:13;;;;;;;2.35;2.15;;;1.30;99.90;;;;;;6152722;23;20013;-86
2021/12/05 09:24:47;;;;;;;;;;;1.70;99.90;;;;;;6167859;23;20025;-83
2021/12/05 10:10:18;;;;;;;2.15;2.05;;;2.90;99.90;;;;;;6119056;23;20024;-86
2021/12/05 10:16:02;;;;;;;;;;;2.70;99.90;;;;;;6164160;23;20021;-84
2021/12/05 10:35:07;;;;;;;1.27;1.17;;;2.70;99.90;;;;;;6154348;23;20024;-87
2021/12/05 10:37:30;;;;;;;2.88;1.33;;;2.70;99.90;;;;;;6156562;23;20020;-82
2021/12/05 10:40:22;;;;;;;1.20;1.20;;;2.70;99.90;;;;;;6155264;23;20357;-84
2021/12/05 10:42:54;;;;;;;7.78;1.50;;;2.90;99.90;;;;;;6187265;23;20029;-84
2021/12/05 10:45:28;;;;;;;1.20;1.17;;;2.80;99.90;;;;;;6131697;23;20024;-87
2021/12/05 10:49:05;;;;;;;;;;;;;;;;;;;;;
2021/12/05 10:53:57;;;;;;;2.33;2.13;;;2.80;99.90;;;;;;5966901;24;20028;-88
2021/12/05 11:04:22;;;;;;;9.95;1.20;;;2.90;99.90;;;;;;6047754;23;20026;-87
2021/12/05 11:08:49;;;;;;;5.78;1.38;;;2.90;99.90;;;;;;5943847;24;20036;-87
2021/12/05 11:17:36;;;;;;;6.28;1.30;;;2.90;99.90;;;;;;5921858;23;20020;-89
2021/12/05 13:13:13;;;;;;;2.25;1.35;;;2.90;99.90;;;;;;6173933;23;20028;-85
2021/12/05 13:17:08;;;;;;;1.30;1.20;;;2.70;99.90;;;;;;6068985;23;20353;-89
2021/12/05 13:19:37;;;;;;;4.53;2.28;;;2.60;99.90;;;;;;6078205;23;20029;-89
2021/12/05 13:22:10;;;;;;;1.33;1.33;;;2.60;99.90;;;;;;6101267;23;20021;-84
2021/12/05 13:24:46;;;;;;;1.98;1.40;;;2.50;99.90;;;;;;6126298;23;20025;-81
2021/12/05 13:27:31;;;;;;;1.85;1.75;;;2.50;99.90;;;;;;6101246;23;20021;-82
2021/12/05 13:29:59;;;;;;;7.10;2.15;;;2.50;99.90;;;;;;6136712;23;20014;-81
2021/12/05 13:32:29;;;;;;;4.72;2.00;;;2.50;99.90;;;;;;6164492;23;20010;-82
2021/12/05 13:35:00;;;;;;;4.38;2.10;;;2.40;99.90;;;;;;6132605;23;20551;-81
2021/12/05 13:38:27;;;;;;;;;;;;;;;;;;;;;
2021/12/05 13:48:10;;;;;;;2.20;1.70;;;2.30;99.90;;;;;;6042431;23;20019;-89
2021/12/05 13:53:14;;;;;;;2.60;1.90;;;2.20;99.90;;;;;;5903145;24;20063;-89
2021/12/05 14:02:22;;;;;;;2.95;2.22;;;2.20;99.90;;;;;;5903746;24;20037;-89
2021/12/05 14:05:50;;;;;;;2.17;2.05;;;2.20;99.90;;;;;;5947147;23;20025;-88
2021/12/05 14:08:30;;;;;;;4.22;2.50;;;2.10;99.90;;;;;;6004632;23;20028;-89
2021/12/05 14:11:03;;;;;;;2.70;1.90;;;2.20;99.90;;;;;;6008614;23;20352;-87
2021/12/05 14:13:31;;;;;;;1.88;1.75;;;2.20;99.90;;;;;;5961800;23;20016;-85
2021/12/05 14:35:52;;;;;;;2.85;1.65;;;2.00;99.90;;;;;;6179981;22;20531;-84
2021/12/05 14:39:38;;;;;;;4.35;2.00;;;1.90;99.90;;;;;;6185319;23;20032;-89
2021/12/05 14:42:16;;;;;;;3.78;3.58;;;1.90;99.90;;;;;;6131416;23;20024;-89
2021/12/05 14:44:46;;;;;;;2.25;2.13;;;1.80;99.90;;;;;;6182475;23;20025;-89
2021/12/05 14:47:19;;;;;;;5.32;3.70;;;1.90;99.90;;;;;;6181636;23;20021;-89
2021/12/05 14:49:51;;;;;;;4.95;4.45;;;1.80;99.90;;;;;;6167684;23;20017;-89
2021/12/05 14:52:23;;;;;;;6.97;3.00;;;1.60;99.90;;;;;;6131939;23;20024;-89
2021/12/05 14:54:53;;;;;;;1.42;1.40;;;1.50;99.90;;;;;;6132846;23;20636;-89
2021/12/05 14:57:27;;;;;;;2.60;2.10;;;1.20;99.90;;;;;;6157168;23;20028;-89
2021/12/05 15:00:06;;;;;;;1.00;1.00;;;1.10;99.90;;;;;;6132067;23;20029;-89
2021/12/05 15:02:35;;;;;;;2.10;1.50;;;0.90;99.90;;;;;;6163819;23;20029;-89
2021/12/05 15:05:08;;;;;;;1.83;0.80;;;0.80;99.90;;;;;;6191967;23;20540;-90
2021/12/05 15:07:36;;;;;;;4.47;1.35;;;0.70;99.90;;;;;;6183783;23;20028;-90
2021/12/05 15:10:05;;;;;;;1.10;1.10;;;0.80;99.90;;;;;;6131011;23;20484;-87
2021/12/05 15:12:34;;;;;;;1.05;1.05;;;0.80;99.90;;;;;;6191305;23;20013;-89
2021/12/05 15:15:08;;;;;;;1.17;1.17;;;0.70;99.90;;;;;;6186044;23;20032;-89
2021/12/05 15:17:39;;;;;;;1.45;1.45;;;0.80;99.90;;;;;;6157768;23;20021;-89
2021/12/05 15:20:15;;;;;;;1.80;1.70;;;0.70;99.90;;;;;;6181400;23;20479;-89
2021/12/05 15:22:52;;;;;;;2.45;1.63;;;0.70;99.90;;;;;;6156658;23;20028;-88
2021/12/05 15:25:24;;;;;;;2.72;2.13;;;0.80;99.90;;;;;;6131646;23;20028;-89
2021/12/05 15:27:52;;;;;;;1.88;1.77;;;0.80;99.90;;;;;;6131621;23;20452;-89
2021/12/05 15:30:27;;;;;;;7.15;3.63;;;0.80;99.90;;;;;;6164290;23;20025;-90
2021/12/05 15:32:59;;;;;;;3.20;2.03;;;0.80;99.90;;;;;;6192292;23;20028;-90
2021/12/05 15:35:27;;;;;;;;;;;1.00;99.90;;;;;;6156355;23;20472;-90
2021/12/05 15:38:07;;;;;;;3.00;2.67;;;0.90;99.90;;;;;;6166133;23;19920;-89
2021/12/05 15:40:41;;;;;;;5.60;3.90;;;0.90;99.90;;;;;;6156765;23;20017;-89
2021/12/05 15:43:15;;;;;;;4.82;3.00;;;0.90;99.90;;;;;;6131238;23;20340;-82
2021/12/05 15:45:46;;;;;;;4.82;3.47;;;1.00;99.90;;;;;;6190395;23;20015;-81
2021/12/05 15:48:25;;;;;;;3.03;1.30;;;0.80;99.90;;;;;;6161564;23;20245;-84
2021/12/05 15:50:55;;;;;;;1.38;1.27;;;0.80;99.90;;;;;;6184280;23;20017;-81
2021/12/05 15:53:25;;;;;;;4.97;1.42;;;0.70;99.90;;;;;;6189506;23;20009;-81
2021/12/05 15:55:59;;;;;;;1.17;0.98;;;0.70;99.90;;;;;;6179271;23;20456;-82
2021/12/05 15:58:38;;;;;;;8.00;3.10;;;0.60;99.90;;;;;;6178377;23;20032;-81
2021/12/05 16:01:13;;;;;;;4.43;1.85;;;0.60;99.90;;;;;;6179567;23;20025;-82
2021/12/05 16:04:02;;;;;;;24.80;15.57;;;0.70;99.90;;;;;;6182373;23;20025;-81
2021/12/05 16:06:34;;;;;;;1.65;1.55;;;0.70;99.90;;;;;;6188902;23;20021;-82
2021/12/05 16:09:15;;;;;;;2.72;1.30;;;0.60;99.90;;;;;;6192434;23;20024;-83
2021/12/05 16:11:44;;;;;;;1.00;1.00;;;0.60;99.90;;;;;;6182931;23;20025;-83
2021/12/05 16:14:12;;;;;;;1.00;1.00;;;0.60;99.90;;;;;;6192333;23;20021;-84
2021/12/05 16:16:40;;;;;;;1.58;1.48;;;0.60;99.90;;;;;;6221470;23;20504;-83
2021/12/05 16:19:09;;;;;;;1.38;1.30;;;0.60;99.90;;;;;;6216623;23;20032;-83
2021/12/05 16:21:38;;;;;;;3.13;2.92;;;0.70;99.90;;;;;;6221579;23;20016;-84
2021/12/05 16:24:15;;;;;;;2.20;1.30;;;0.60;99.90;;;;;;6210502;23;20725;-83
2021/12/05 16:26:48;;;;;;;4.10;1.77;;;0.60;99.90;;;;;;6217367;23;20509;-83
2021/12/05 16:29:20;;;;;;;2.88;2.67;;;0.60;99.90;;;;;;6221322;23;20036;-83
2021/12/05 16:31:57;;;;;;;2.65;1.98;;;0.60;99.90;;;;;;6211526;23;20317;-83
2021/12/05 16:34:31;;;;;;;2.72;2.53;;;0.60;99.90;;;;;;6212097;23;20016;-83
2021/12/05 16:37:08;;;;;;;1.88;1.77;;;0.60;99.90;;;;;;6212358;23;20020;-83
2021/12/05 16:39:44;;;;;;;1.77;1.33;;;0.70;99.90;;;;;;6214588;23;20024;-83
2021/12/05 16:42:19;;;;;;;18.48;13.10;;;0.70;99.90;;;;;;6209041;23;20021;-83
2021/12/05 16:44:57;;;;;;;2.60;2.20;;;0.70;99.90;;;;;;6222745;23;20020;-79
2021/12/05 16:47:32;;;;;;;2.25;2.15;;;0.70;99.90;;;;;;6215275;23;20029;-80
2021/12/05 16:50:10;;;;;;;1.58;1.48;;;0.70;99.90;;;;;;6210503;23;20467;-84
2021/12/05 16:52:50;;;;;;;2.97;1.70;;;0.70;99.90;;;;;;6185578;23;20020;-83
2021/12/05 16:55:26;;;;;;;2.03;1.92;;;0.70;99.90;;;;;;6209312;23;20024;-81
2021/12/05 16:58:16;;;;;;;2.53;2.33;;;0.70;99.90;;;;;;6212058;23;20305;-79
2021/12/05 17:00:52;;;;;;;2.20;2.10;;;0.80;99.90;;;;;;6211338;23;20020;-81
2021/12/05 17:03:26;;;;;;;3.10;2.45;;;0.80;99.90;;;;;;6212282;23;20040;-81
2021/12/05 17:06:09;;;;;;;1.80;1.70;;;0.80;99.90;;;;;;6214370;23;20044;-79
2021/12/05 17:08:45;;;;;;;3.25;2.95;;;0.80;99.90;;;;;;6223044;23;20020;-80
2021/12/05 17:11:17;;;;;;;4.50;3.95;;;0.80;99.90;;;;;;6216059;23;20028;-81
2021/12/05 17:13:55;;;;;;;4.18;3.15;;;0.80;99.90;;;;;;6224664;23;20023;-81
2021/12/05 17:16:29;;;;;;;2.58;2.38;;;0.80;99.90;;;;;;6221139;23;20443;-80
2021/12/05 17:19:05;;;;;;;3.28;2.75;;;0.80;99.90;;;;;;6219568;23;20017;-80
2021/12/05 17:21:50;;;;;;;3.90;3.58;;;0.80;99.90;;;;;;6224191;23;20336;-81
2021/12/05 17:24:24;;;;;;;3.47;3.17;;;0.80;99.90;;;;;;6213264;23;20024;-81
2021/12/05 17:27:01;;;;;;;3.38;3.08;;;0.90;99.90;;;;;;6218716;23;20020;-82
2021/12/05 17:29:36;;;;;;;3.95;3.58;;;0.80;99.90;;;;;;6224493;23;20020;-83
2021/12/05 17:32:10;;;;;;;6.70;4.10;;;0.80;99.90;;;;;;6214405;23;20475;-86
2021/12/05 17:34:43;;;;;;;2.72;2.53;;;0.80;99.90;;;;;;6218664;23;20024;-86
2021/12/05 17:37:14;;;;;;;4.55;4.15;;;0.90;99.90;;;;;;6223008;23;20012;-86
2021/12/05 17:39:46;;;;;;;6.05;3.00;;;0.90;99.90;;;;;;6215332;23;20380;-86
2021/12/05 17:42:19;;;;;;;11.88;4.95;;;0.90;99.90;;;;;;6220669;23;20447;-86
2021/12/05 17:44:50;;;;;;;4.40;3.80;;;0.80;99.90;;;;;;6224197;23;20013;-87
2021/12/05 17:47:19;;;;;;;5.78;5.18;;;0.80;99.90;;;;;;6212499;23;20031;-86
2021/12/05 17:49:53;;;;;;;7.38;3.15;;;0.70;99.90;;;;;;6212687;23;20195;-85
2021/12/05 17:52:24;;;;;;;8.23;5.03;;;0.70;99.90;;;;;;6195547;23;20032;-83
2021/12/05 17:55:01;;;;;;;5.45;4.95;;;0.60;99.90;;;;;;6186835;23;20017;-85
2021/12/05 17:57:40;;;;;;;9.65;5.47;;;0.60;99.90;;;;;;6212405;23;20016;-88
2021/12/05 18:03:07;;;;;;;7.13;5.68;;;0.50;99.90;;;;;;6218704;23;20035;-84
2021/12/05 18:05:45;;;;;;;8.15;6.78;;;0.50;99.90;;;;;;6223768;23;20061;-85
2021/12/05 18:08:18;;;;;;;6.20;5.18;;;0.50;99.90;;;;;;6212586;23;20040;-85
2021/12/05 18:10:51;;;;;;;5.53;4.95;;;0.40;99.90;;;;;;6216927;23;20030;-85
2021/12/05 18:13:23;;;;;;;6.05;5.45;;;0.50;99.90;;;;;;6222463;23;20464;-84
2021/12/05 18:15:58;;;;;;;8.40;4.93;;;0.50;99.90;;;;;;6215148;23;20033;-86
2021/12/05 18:18:28;;;;;;;7.10;5.63;;;0.50;99.90;;;;;;6219551;23;20039;-87
2021/12/05 18:20:57;;;;;;;10.23;5.28;;;0.50;99.90;;;;;;6223681;23;20016;-86
2021/12/05 18:23:25;;;;;;;10.30;4.38;;;0.50;99.90;;;;;;6216705;23;20039;-84
2021/12/05 18:25:53;;;;;;;6.03;5.15;;;0.60;99.90;;;;;;6222108;23;20020;-85
2021/12/05 18:28:21;;;;;;;4.72;4.32;;;0.50;99.90;;;;;;6224210;23;20028;-85
2021/12/05 18:30:49;;;;;;;6.35;5.75;;;0.50;99.90;;;;;;6218670;23;20028;-86
2021/12/05 18:33:20;;;;;;;4.18;3.78;;;0.50;99.90;;;;;;6224134;23;20489;-86
2021/12/05 18:35:49;;;;;;;3.72;3.40;;;0.50;99.90;;;;;;6214403;23;20025;-88
2021/12/05 18:38:22;;;;;;;4.75;3.85;;;0.50;99.90;;;;;;6213216;23;20021;-87
2021/12/05 18:40:55;;;;;;;5.65;4.60;;;0.50;99.90;;;;;;6221365;23;20055;-85
2021/12/05 18:43:27;;;;;;;5.72;4.57;;;0.60;99.90;;;;;;6214913;23;20029;-84
2021/12/05 18:45:56;;;;;;;9.45;5.22;;;0.60;99.90;;;;;;6214798;23;20021;-84
2021/12/05 18:48:26;;;;;;;6.57;4.22;;;0.60;99.90;;;;;;6222205;23;20017;-84
2021/12/05 18:50:54;;;;;;;4.57;3.45;;;0.60;99.90;;;;;;6210929;23;20020;-86
2021/12/05 18:53:23;;;;;;;5.30;4.80;;;0.60;99.90;;;;;;6223986;23;20032;-86
2021/12/05 18:55:52;;;;;;;4.28;3.95;;;0.60;99.90;;;;;;6213543;23;20035;-87
2021/12/05 18:58:23;;;;;;;5.68;4.85;;;0.60;99.90;;;;;;6219547;23;20448;-88
2021/12/05 19:06:42;;;;;;;4.80;4.40;;;0.80;99.90;;;;;;6220108;23;20454;-89
2021/12/05 19:11:53;;;;;;;5.65;4.30;;;0.60;99.90;;;;;;6209549;23;20028;-85
2021/12/05 19:14:26;;;;;;;5.07;3.97;;;0.60;99.90;;;;;;6210249;23;20021;-80
2021/12/05 19:17:00;;;;;;;7.35;5.38;;;0.50;99.90;;;;;;6211716;23;20035;-81
2021/12/05 19:19:28;;;;;;;13.57;5.05;;;0.50;99.90;;;;;;6214149;23;20031;-83
2021/12/05 19:21:58;;;;;;;9.57;4.68;;;0.60;99.90;;;;;;6220640;23;20391;-81
2021/12/05 19:24:29;;;;;;;4.85;4.55;;;0.60;99.90;;;;;;6223196;23;20012;-82
2021/12/05 19:26:59;;;;;;;6.70;3.85;;;0.50;99.90;;;;;;6215954;23;20016;-82
2021/12/05 19:29:29;;;;;;;11.98;5.47;;;0.50;99.90;;;;;;6222330;23;20038;-83
2021/12/05 19:31:59;;;;;;;5.53;4.63;;;0.50;99.90;;;;;;6210735;23;20344;-83
2021/12/05 19:34:28;;;;;;;9.20;4.85;;;0.40;99.90;;;;;;6219778;23;20039;-83
2021/12/05 19:36:55;;;;;;;4.80;4.13;;;0.40;99.90;;;;;;6211438;23;20024;-83
2021/12/05 19:39:25;;;;;;;10.00;4.30;;;0.40;99.90;;;;;;6215538;23;20024;-82
2021/12/05 19:41:55;;;;;;;6.13;3.83;;;0.30;99.90;;;;;;6209995;23;20027;-81
2021/12/05 19:44:26;;;;;;;4.60;3.58;;;0.30;99.90;;;;;;6211709;23;20017;-83
2021/12/05 19:46:55;;;;;;;5.95;4.25;;;0.30;99.90;;;;;;6216757;23;20024;-83
2021/12/05 19:49:25;;;;;;;4.50;4.13;;;0.20;99.90;;;;;;6221930;23;20012;-82
2021/12/05 19:51:54;;;;;;;5.90;4.25;;;0.20;99.90;;;;;;6210098;23;20035;-82
2021/12/05 19:54:22;;;;;;;4.90;4.43;;;0.30;99.90;;;;;;6218440;23;20027;-82
2021/12/05 19:56:51;;;;;;;5.47;4.47;;;0.30;99.90;;;;;;6210499;23;20013;-83
2021/12/05 19:59:20;;;;;;;5.25;4.80;;;0.30;99.90;;;;;;6210707;23;20027;-83
2021/12/05 20:01:50;;;;;;;5.18;4.43;;;0.30;99.90;;;;;;6221212;23;20348;-82
2021/12/05 20:04:19;;;;;;;4.40;3.95;;;0.30;99.90;;;;;;6209495;23;20021;-82
2021/12/05 20:06:49;;;;;;;4.07;3.67;;;0.20;99.90;;;;;;6210490;23;20021;-86
2021/12/05 20:09:41;;;;;;;19.02;7.07;;;0.20;99.90;;;;;;6186893;23;20017;-91
2021/12/05 20:12:09;;;;;;;78.18;12.05;;;0.20;99.90;;;;;;6161150;23;20021;-90
2021/12/05 20:14:37;;;;;;;89.70;12.95;;;0.10;99.90;;;;;;6160956;23;20013;-87
2021/12/05 20:17:05;;;;;;;20.23;8.25;;;-0.10;99.90;;;;;;6186584;23;20020;-88
2021/12/05 20:19:34;;;;;;;56.17;11.65;;;-0.10;99.90;;;;;;6210821;23;20452;-88
2021/12/05 20:22:02;;;;;;;137.50;10.93;;;-0.10;99.90;;;;;;6210517;23;20017;-87
2021/12/05 20:24:32;;;;;;;29.85;5.70;;;-0.10;99.90;;;;;;6162109;23;20441;-89
2021/12/05 20:27:01;;;;;;;89.82;10.45;;;-0.10;99.90;;;;;;6209360;23;20031;-87
2021/12/05 20:29:29;;;;;;;37.00;9.52;;;-0.10;99.90;;;;;;6185702;23;20043;-88
2021/12/05 20:31:57;;;;;;;43.78;7.88;;;-0.10;99.90;;;;;;6210129;23;20029;-88
2021/12/05 20:34:25;;;;;;;60.78;6.80;;;-0.20;99.90;;;;;;6186077;23;20019;-88
2021/12/05 20:36:54;;;;;;;79.10;7.97;;;-0.10;99.90;;;;;;6196517;23;20013;-88
2021/12/05 20:39:23;;;;;;;11.85;3.72;;;-0.10;99.90;;;;;;6213467;23;20021;-89
2021/12/05 20:41:51;;;;;;;51.10;5.38;;;-0.20;99.90;;;;;;6195027;23;20013;-84
2021/12/05 20:44:19;;;;;;;51.30;5.30;;;-0.20;99.90;;;;;;6220978;23;20316;-87
2021/12/05 20:46:47;;;;;;;16.88;3.78;;;-0.30;99.90;;;;;;6214897;23;20020;-86
2021/12/05 20:49:16;;;;;;;61.88;5.78;;;-0.50;99.90;;;;;;6185512;23;20025;-86
2021/12/05 20:51:44;;;;;;;21.65;3.53;;;-0.60;99.90;;;;;;6212897;23;20024;-85
2021/12/05 20:54:12;;;;;;;5.47;4.68;;;-0.60;99.90;;;;;;6216350;23;20012;-86
2021/12/05 20:56:42;;;;;;;37.53;4.88;;;-0.60;99.90;;;;;;6220889;23;20019;-86
2021/12/05 20:59:10;;;;;;;11.40;3.25;;;-0.60;99.90;;;;;;6214533;23;20021;-86
2021/12/05 21:01:38;;;;;;;16.33;4.70;;;-0.60;99.90;;;;;;6221846;23;20021;-85
2021/12/05 21:04:07;;;;;;;19.98;4.40;;;-0.50;99.90;;;;;;6211938;23;20344;-86
2021/12/05 21:06:35;;;;;;;19.05;3.97;;;-0.50;99.90;;;;;;6206490;23;20021;-86
2021/12/05 21:09:07;;;;;;;28.35;4.10;;;-0.40;99.90;;;;;;6221804;23;20020;-86
2021/12/05 21:11:38;;;;;;;55.85;6.85;;;-0.40;99.90;;;;;;6183971;23;20340;-85
2021/12/05 21:14:09;;;;;;;140.07;11.25;;;-0.50;99.90;;;;;;6184124;23;20135;-86
2021/12/05 21:16:38;;;;;;;15.20;3.10;;;-0.50;99.90;;;;;;6220405;23;20366;-86
2021/12/05 21:19:06;;;;;;;13.15;3.20;;;-0.50;99.90;;;;;;6209919;23;20021;-86
2021/12/05 21:21:34;;;;;;;5.75;2.85;;;-0.40;99.90;;;;;;6219973;23;20569;-86
2021/12/05 21:24:02;;;;;;;27.50;6.20;;;-0.40;99.90;;;;;;6183696;23;20028;-85
2021/12/05 21:26:30;;;;;;;28.85;3.90;;;-0.40;99.90;;;;;;6216155;23;20017;-86
2021/12/05 21:28:58;;;;;;;4.60;3.20;;;-0.40;99.90;;;;;;6220858;23;20029;-86
2021/12/05 21:31:26;;;;;;;3.53;3.20;;;-0.30;99.90;;;;;;6159570;23;20027;-86
2021/12/05 21:33:55;;;;;;;86.93;6.90;;;-0.30;99.90;;;;;;6194426;23;20017;-86
2021/12/05 21:36:23;;;;;;;8.63;4.95;;;-0.30;99.90;;;;;;6182308;23;20352;-86
2021/12/05 21:38:51;;;;;;;10.93;5.65;;;-0.20;99.90;;;;;;6181981;23;20467;-86
2021/12/05 21:41:21;;;;;;;15.98;4.45;;;-0.30;99.90;;;;;;6218745;23;20031;-86
2021/12/05 21:43:53;;;;;;;14.23;4.95;;;-0.30;99.90;;;;;;6212938;23;20025;-85